Map

Track Data

SID SEASON NUMBER BASIN SUBBASIN NAME ISO_TIME NATURE LAT LON WMO_WIND WMO_PRES WMO_AGENCY TRACK_TYPE DIST2LAND LANDFALL IFLAG USA_AGENCY USA_ATCF_ID USA_LAT USA_LON USA_RECORD USA_STATUS USA_WIND USA_PRES USA_SSHS USA_R34_NE USA_R34_SE USA_R34_SW USA_R34_NW USA_R50_NE USA_R50_SE USA_R50_SW USA_R50_NW USA_R64_NE USA_R64_SE USA_R64_SW USA_R64_NW USA_POCI USA_ROCI USA_RMW USA_EYE TOKYO_LAT TOKYO_LON TOKYO_GRADE TOKYO_WIND TOKYO_PRES TOKYO_R50_DIR TOKYO_R50_LONG TOKYO_R50_SHORT TOKYO_R30_DIR TOKYO_R30_LONG TOKYO_R30_SHORT TOKYO_LAND CMA_LAT CMA_LON CMA_CAT CMA_WIND CMA_PRES HKO_LAT HKO_LON HKO_CAT HKO_WIND HKO_PRES NEWDELHI_LAT NEWDELHI_LON NEWDELHI_GRADE NEWDELHI_WIND NEWDELHI_PRES NEWDELHI_CI NEWDELHI_DP NEWDELHI_POCI REUNION_LAT REUNION_LON REUNION_TYPE REUNION_WIND REUNION_PRES REUNION_TNUM REUNION_CI REUNION_RMW REUNION_R34_NE REUNION_R34_SE REUNION_R34_SW REUNION_R34_NW REUNION_R50_NE REUNION_R50_SE REUNION_R50_SW REUNION_R50_NW REUNION_R64_NE REUNION_R64_SE REUNION_R64_SW REUNION_R64_NW BOM_LAT BOM_LON BOM_TYPE BOM_WIND BOM_PRES BOM_TNUM BOM_CI BOM_RMW BOM_R34_NE BOM_R34_SE BOM_R34_SW BOM_R34_NW BOM_R50_NE BOM_R50_SE BOM_R50_SW BOM_R50_NW BOM_R64_NE BOM_R64_SE BOM_R64_SW BOM_R64_NW BOM_ROCI BOM_POCI BOM_EYE BOM_POS_METHOD BOM_PRES_METHOD NADI_LAT NADI_LON NADI_CAT NADI_WIND NADI_PRES WELLINGTON_LAT WELLINGTON_LON WELLINGTON_WIND WELLINGTON_PRES DS824_LAT DS824_LON DS824_STAGE DS824_WIND DS824_PRES TD9636_LAT TD9636_LON TD9636_STAGE TD9636_WIND TD9636_PRES TD9635_LAT TD9635_LON TD9635_WIND TD9635_PRES TD9635_ROCI NEUMANN_LAT NEUMANN_LON NEUMANN_CLASS NEUMANN_WIND NEUMANN_PRES MLC_LAT MLC_LON MLC_CLASS MLC_WIND MLC_PRES USA_GUST BOM_GUST BOM_GUST_PER REUNION_GUST REUNION_GUST_PER USA_SEAHGT USA_SEARAD_NE USA_SEARAD_SE USA_SEARAD_SW USA_SEARAD_NW STORM_SPEED STORM_DIR
1969134N15087 1969 28 NI BB NOT_NAMED 1969-05-13 18:00:00 TS 14.8000 87.4000 main 526 519 O________O____ jtwc_io IO011969 14.8000 87.4000 -1 14.8000 87.4000 TC 2 300
1969134N15087 1969 28 NI BB NOT_NAMED 1969-05-13 21:00:00 TS 14.8400 87.3275 main 519 503 P________P____ IO011969 14.8400 87.3275 -1 14.8400 87.3275 TC 2 297
1969134N15087 1969 28 NI BB NOT_NAMED 1969-05-14 00:00:00 TS 14.9000 87.2000 main 503 481 O________O____ jtwc_io IO011969 14.9000 87.2000 -1 14.9000 87.2000 TC 25 4 295
1969134N15087 1969 28 NI BB NOT_NAMED 1969-05-14 03:00:00 TS 14.9933 86.9822 main 481 452 P________PO___ IO011969 14.9925 86.9800 -1 14.9925 86.9800 TC 25 15.0000 87.0000 1 5 292
1969134N15087 1969 28 NI BB NOT_NAMED 1969-05-14 06:00:00 TS 15.1020 86.6957 main 452 424 O________OP___ jtwc_io IO011969 15.1000 86.7000 -1 15.1000 86.7000 TC 25 15.1098 86.6784 1 6 290
1969134N15087 1969 28 NI BB NOT_NAMED 1969-05-14 09:00:00 TS 15.2042 86.3905 main 424 397 P________PP___ IO011969 15.2000 86.4000 -1 15.2000 86.4000 TC 25 15.2155 86.3653 1 6 289
1969134N15087 1969 28 NI BB NOT_NAMED 1969-05-14 12:00:00 TS 15.3045 86.0899 main 397 370 O________OP___ jtwc_io IO011969 15.3000 86.1000 -1 15.3000 86.1000 TC 25 15.3134 86.0696 1 6 290
1969134N15087 1969 28 NI BB NOT_NAMED 1969-05-14 15:00:00 TS 15.4050 85.8283 main 370 347 P________PO___ IO011969 15.4074 85.8425 -1 15.4074 85.8425 TC 25 15.4000 85.8000 1 5 291
1969134N15087 1969 28 NI BB NOT_NAMED 1969-05-14 18:00:00 TS 15.4907 85.5872 main 347 324 O________OP___ jtwc_io IO011969 15.5000 85.6000 -1 15.5000 85.6000 TC 25 15.4722 85.5615 1 5 288
1969134N15087 1969 28 NI BB NOT_NAMED 1969-05-14 21:00:00 TS 15.5532 85.3475 main 316 301 P________PP___ IO011969 15.5650 85.3500 -1 15.5650 85.3500 TC 25 15.5297 85.3424 1 5 282
1969134N15087 1969 28 NI BB NOT_NAMED 1969-05-15 00:00:00 TS 15.5908 85.1090 main 301 287 O________OP___ jtwc_io IO011969 15.6000 85.1000 -1 15.6000 85.1000 TC 25 15.5723 85.1271 1 5 276
1969134N15087 1969 28 NI BB NOT_NAMED 1969-05-15 03:00:00 TS 15.6050 84.8666 main 287 269 P________PO___ IO011969 15.6075 84.8500 -1 15.6075 84.8500 TC 25 15.6000 84.9000 1 5 272
1969134N15087 1969 28 NI BB NOT_NAMED 1969-05-15 06:00:00 TS 15.6062 84.6104 main 269 250 O________OP___ jtwc_io IO011969 15.6000 84.6000 -1 15.6000 84.6000 TC 25 15.6185 84.6312 1 5 270
1969134N15087 1969 28 NI BB NOT_NAMED 1969-05-15 09:00:00 TS 15.6075 84.3500 main 241 222 P________PP___ IO011969 15.6000 84.3500 -1 15.6000 84.3500 TC 25 15.6226 84.3500 1 5 270
1969134N15087 1969 28 NI BB NOT_NAMED 1969-05-15 12:00:00 TS 15.6051 84.0896 main 222 195 O________OP___ jtwc_io IO011969 15.6000 84.1000 -1 15.6000 84.1000 TC 25 15.6154 84.0687 1 5 270
1969134N15087 1969 28 NI BB NOT_NAMED 1969-05-15 15:00:00 TS 15.6050 83.8334 main 195 178 P________PO___ IO011969 15.6075 83.8500 -1 15.6075 83.8500 TC 30 15.6000 83.8000 1 5 268
1969134N15087 1969 28 NI BB NOT_NAMED 1969-05-15 18:00:00 TS 15.5926 83.5950 main 178 162 O________OP___ jtwc_io IO011969 15.6000 83.6000 -1 15.6000 83.6000 TC 35 15.5778 83.5850 1 5 263
1969134N15087 1969 28 NI BB NOT_NAMED 1969-05-15 21:00:00 TS 15.5498 83.3599 main 170 149 P________PP___ IO011969 15.5500 83.3500 -1 15.5500 83.3500 TC 35 15.5495 83.3799 1 5 259
1969134N15087 1969 28 NI BB NOT_NAMED 1969-05-16 00:00:00 TS 15.5072 83.1200 main 149 138 O________OP___ jtwc_io IO011969 15.5000 83.1000 -1 15.5000 83.1000 TC 35 15.5215 83.1599 1 5 263
1969134N15087 1969 28 NI BB NOT_NAMED 1969-05-16 03:00:00 TS 15.4949 82.8817 main 138 124 P________PO___ IO011969 15.4924 82.8725 -1 15.4924 82.8725 TC 35 15.5000 82.9000 3 5 269
1969134N15087 1969 28 NI BB NOT_NAMED 1969-05-16 06:00:00 TS 15.4964 82.5813 main 124 104 O________OP___ jtwc_io IO011969 15.5000 82.6000 -1 15.5000 82.6000 TC 35 15.4891 82.5438 3 7 270
1969134N15087 1969 28 NI BB NOT_NAMED 1969-05-16 09:00:00 TS 15.4952 82.1933 main 104 85 P________PP___ IO011969 15.5001 82.2150 -1 15.5001 82.2150 TC 35 15.4855 82.1500 3 8 270
1969134N15087 1969 28 NI BB NOT_NAMED 1969-05-16 12:00:00 TS 15.4964 81.7854 main 85 54 O________OP___ jtwc_io IO011969 15.5000 81.8000 -1 15.5000 81.8000 TC 35 15.4891 81.7562 3 7 270
1969134N15087 1969 28 NI BB NOT_NAMED 1969-05-16 15:00:00 TS 15.4950 81.4183 main 54 30 P________PO___ IO011969 15.4925 81.4275 -1 15.4925 81.4275 TC 35 15.5000 81.4000 3 7 270
1969134N15087 1969 28 NI BB NOT_NAMED 1969-05-16 18:00:00 TS 15.5018 81.0998 main 30 22 O________OP___ jtwc_io IO011969 15.5000 81.1000 -1 15.5000 81.1000 TC 35 15.5054 81.0994 3 6 274
1969134N15087 1969 28 NI BB NOT_NAMED 1969-05-16 21:00:00 TS 15.5349 80.8234 main 22 15 P________PP___ IO011969 15.5425 80.8125 -1 15.5425 80.8125 TC 35 15.5198 80.8450 3 5 280
1969134N15087 1969 28 NI BB NOT_NAMED 1969-05-17 00:00:00 TS 15.5831 80.6144 main 24 22 O________OP___ jtwc_io IO011969 15.6000 80.6000 -1 15.6000 80.6000 TC 35 15.5493 80.6432 3 3 286
1969134N15087 1969 28 NI BB NOT_NAMED 1969-05-17 03:00:00 TS 15.6283 80.4750 main 22 10 P________PO___ IO011969 15.6425 80.4625 -1 15.6425 80.4625 TC 35 15.6000 80.5000 3 2 298
1969134N15087 1969 28 NI BB NOT_NAMED 1969-05-17 06:00:00 TS 15.6941 80.4018 main 10 0 O________OP___ jtwc_io IO011969 15.7000 80.4000 -1 15.7000 80.4000 TC 35 15.6824 80.4053 3 2 331
1969134N15087 1969 28 NI BB NOT_NAMED 1969-05-17 09:00:00 TS 15.7899 80.3792 main 0 0 P________PP___ IO011969 15.7925 80.3850 -1 15.7925 80.3850 TC 35 15.7848 80.3675 3 2 353
1969134N15087 1969 28 NI BB NOT_NAMED 1969-05-17 12:00:00 TS 15.8983 80.3903 main 0 0 O________OP___ jtwc_io IO011969 15.9000 80.4000 -1 15.9000 80.4000 TC 35 15.8949 80.3709 3 2 7
1969134N15087 1969 28 NI BB NOT_NAMED 1969-05-17 15:00:00 TS 16.0050 80.3950 main 0 0 P________PO___ IO011969 16.0075 80.3925 -1 16.0075 80.3925 TC 35 16.0000 80.4000 3 2 0
1969134N15087 1969 28 NI BB NOT_NAMED 1969-05-17 18:00:00 TS 16.0968 80.4095 main 0 0 O________OP___ jtwc_io IO011969 16.1000 80.4000 -1 16.1000 80.4000 TC 35 16.0903 80.4284 3 2 20
1969134N15087 1969 28 NI BB NOT_NAMED 1969-05-17 21:00:00 TS 16.1625 80.4541 main 0 0 P________PP___ IO011969 16.1575 80.4425 -1 16.1575 80.4425 TC 35 16.1725 80.4774 3 2 40
1969134N15087 1969 28 NI BB NOT_NAMED 1969-05-18 00:00:00 TS 16.2145 80.5126 main 0 0 O________OP___ jtwc_io IO011969 16.2000 80.5000 -1 16.2000 80.5000 TC 35 16.2434 80.5378 3 2 45
1969134N15087 1969 28 NI BB NOT_NAMED 1969-05-18 03:00:00 TS 16.2667 80.5667 main 0 0 P________PO___ IO011969 16.2500 80.5500 -1 16.2500 80.5500 TC 35 16.3000 80.6000 3 1 47
1969134N15087 1969 28 NI BB NOT_NAMED 1969-05-18 06:00:00 TS 16.3118 80.6180 main 0 0 O________OP___ jtwc_io IO011969 16.3000 80.6000 -1 16.3000 80.6000 TC 35 16.3353 80.6541 3 1 46
1969134N15087 1969 28 NI BB NOT_NAMED 1969-05-18 09:00:00 TS 16.3575 80.6692 main 0 0 P________PP___ IO011969 16.3575 80.6500 -1 16.3575 80.6500 TC 35 16.3575 80.7075 3 1 50
1969134N15087 1969 28 NI BB NOT_NAMED 1969-05-18 12:00:00 TS 16.3920 80.7191 main 0 0 O________OP___ jtwc_io IO011969 16.4000 80.7000 -1 16.4000 80.7000 TC 35 16.3759 80.7572 3 1 66
1969134N15087 1969 28 NI BB NOT_NAMED 1969-05-18 15:00:00 TS 16.4000 80.7667 main 0 0 P________PO___ IO011969 16.4000 80.7500 -1 16.4000 80.7500 TC 35 16.4000 80.8000 3 1 85
1969134N15087 1969 28 NI BB NOT_NAMED 1969-05-18 18:00:00 TS 16.3994 80.8121 main 0 0 O________OP___ jtwc_io IO011969 16.4000 80.8000 -1 16.4000 80.8000 TC 35 16.3981 80.8363 3 1 76
1969134N15087 1969 28 NI BB NOT_NAMED 1969-05-18 21:00:00 TS 16.4217 80.8600 main 0 0 P________PP___ IO011969 16.4275 80.8575 -1 16.4275 80.8575 TC 30 16.4100 80.8650 3 1 41
1969134N15087 1969 28 NI BB NOT_NAMED 1969-05-19 00:00:00 TS 16.4890 80.8954 main 0 0 O________OP___ jtwc_io IO011969 16.5000 80.9000 -1 16.5000 80.9000 TC 25 16.4669 80.8863 3 2 12
1969134N15087 1969 28 NI BB NOT_NAMED 1969-05-19 03:00:00 TS 16.6033 80.9050 main 0 0 P________PO___ IO011969 16.6050 80.9075 -1 16.6050 80.9075 TC 25 16.6000 80.9000 1 3 3
1969134N15087 1969 28 NI BB NOT_NAMED 1969-05-19 06:00:00 TS 16.8124 80.9026 main 0 0 O________OP___ jtwc_io IO011969 16.8000 80.9000 -1 16.8000 80.9000 TC 25 16.8309 80.9066 1 5 0
1969134N15087 1969 28 NI BB NOT_NAMED 1969-05-19 09:00:00 TS 17.1268 80.9018 main 0 0 P________PP___ IO011969 17.1150 80.8975 -1 17.1150 80.8975 TC 25 17.1425 80.9075 1 7 358
1969134N15087 1969 28 NI BB NOT_NAMED 1969-05-19 12:00:00 TS 17.5039 80.9024 main 0 0 O________OP___ jtwc_io IO011969 17.5000 80.9000 -1 17.5000 80.9000 TC 25 17.5078 80.9047 1 8 359
1969134N15087 1969 28 NI BB NOT_NAMED 1969-05-19 15:00:00 NR 17.9000 80.9000 main 0 __________O___ IO011969 -1 TC 17.9000 80.9000 1 8 0

About IBTrACS Database

This database is a web-friendly format of International Best Track Archive for Climate Stewardship (IBTrACS), a global best track data archive curated by NOAA dating back to 1842.

Updated: 2021-10-25